Time;durP1;ratioP1;P1;durP2;ratioP2;P2;SDS_P1;SDS_P2;PMS_P1;PMS_P2;Temp;Humidity;BMP_temperature;BMP_pressure;BME280_temperature;BME280_humidity;BME280_pressure;Samples;Min_cycle;Max_cycle;Signal;HPM_P1;HPM_P2
2023/01/21 00:01:53;;;;;;;28.15;19.17;;;;;;;0.82;77.93;93216.91;4994103;28;20576;-79
2023/01/21 00:04:19;;;;;;;27.20;19.25;;;;;;;0.75;79.23;93259.06;4978186;28;20038;-79
2023/01/21 00:06:44;;;;;;;30.38;20.48;;;;;;;0.25;79.78;93207.63;4979648;28;20018;-78
2023/01/21 00:09:10;;;;;;;29.38;19.33;;;;;;;0.43;80.91;93267.25;4978672;28;20508;-79
2023/01/21 00:11:35;;;;;;;29.58;20.20;;;;;;;0.85;80.09;93253.03;4978772;28;20045;-78
2023/01/21 00:14:01;;;;;;;28.95;18.80;;;;;;;0.82;78.61;93217.69;4974889;28;20136;-79
2023/01/21 00:16:26;;;;;;;28.40;19.27;;;;;;;1.03;78.54;93265.56;4976190;28;20398;-78
2023/01/21 00:18:51;;;;;;;24.60;17.77;;;;;;;0.44;79.22;93263.59;4974442;28;20446;-78
2023/01/21 00:21:17;;;;;;;28.23;18.25;;;;;;;0.31;79.76;93211.78;4977477;28;20045;-79
2023/01/21 00:23:44;;;;;;;28.85;19.05;;;;;;;0.35;80.84;93265.13;4979756;28;20050;-78
2023/01/21 00:26:11;;;;;;;31.58;20.13;;;;;;;-0.12;82.42;93234.81;4977205;28;20497;-78
2023/01/21 00:28:37;;;;;;;27.77;19.27;;;;;;;0.11;82.83;93245.78;4974055;28;20514;-78
2023/01/21 00:31:05;;;;;;;28.90;19.00;;;;;;;0.68;81.19;93258.56;4975181;28;20491;-79
2023/01/21 00:33:31;;;;;;;30.38;19.55;;;;;;;0.69;79.91;93275.84;4976427;28;20030;-78
2023/01/21 00:36:01;;;;;;;28.00;18.98;;;;;;;0.52;80.06;93283.19;4979954;28;20461;-79
2023/01/21 00:38:27;;;;;;;30.58;19.98;;;;;;;0.40;79.62;93267.00;4976372;28;20302;-78
2023/01/21 00:41:02;;;;;;;29.15;19.17;;;;;;;0.21;81.43;93249.19;4978207;28;20056;-78
2023/01/21 00:43:28;;;;;;;27.55;19.08;;;;;;;0.24;81.07;93232.19;4976449;28;20485;-79
2023/01/21 00:45:53;;;;;;;28.30;20.00;;;;;;;0.40;80.46;93241.59;4976431;28;20505;-78
2023/01/21 00:48:19;;;;;;;29.17;20.35;;;;;;;0.05;81.72;93259.94;4977487;28;20463;-78
2023/01/21 00:50:44;;;;;;;31.20;20.73;;;;;;;-0.07;83.16;93253.13;4977508;28;20256;-79
2023/01/21 00:53:10;;;;;;;29.80;20.02;;;;;;;-0.14;83.09;93246.59;4977112;28;20057;-79
2023/01/21 00:55:35;;;;;;;30.25;20.13;;;;;;;-0.20;82.75;93231.94;4976890;28;20046;-78
2023/01/21 00:58:01;;;;;;;30.90;20.15;;;;;;;-0.49;83.60;93230.84;4976450;28;20022;-79
2023/01/21 01:00:26;;;;;;;30.25;20.92;;;;;;;-0.53;84.03;93225.34;4977139;28;20462;-79
2023/01/21 01:02:51;;;;;;;27.58;19.17;;;;;;;-0.22;83.33;93260.94;4997311;28;20083;-79
2023/01/21 01:05:18;;;;;;;26.25;18.73;;;;;;;-0.38;83.36;93264.56;4998551;28;20045;-80
2023/01/21 01:07:44;;;;;;;29.55;18.92;;;;;;;-0.72;84.81;93245.13;4993902;28;20061;-80
2023/01/21 01:10:10;;;;;;;29.17;20.25;;;;;;;-0.53;85.20;93264.50;4997161;28;20041;-79
2023/01/21 01:12:35;;;;;;;26.98;19.50;;;;;;;-0.27;83.94;93249.69;4979035;28;20018;-79
2023/01/21 01:15:01;;;;;;;27.85;18.23;;;;;;;-0.00;82.83;93246.84;4998117;28;20565;-79
2023/01/21 01:17:26;;;;;;;29.27;17.83;;;;;;;0.25;82.43;93265.16;4995948;28;20046;-79
2023/01/21 01:19:51;;;;;;;26.75;17.88;;;;;;;-0.01;82.31;93266.19;4996165;28;20128;-78
2023/01/21 01:22:17;;;;;;;27.00;17.95;;;;;;;-0.42;83.29;93229.53;4996679;28;20026;-78
2023/01/21 01:24:42;;;;;;;26.17;17.15;;;;;;;-0.32;83.38;93260.91;4994642;28;20018;-78
2023/01/21 01:27:08;;;;;;;26.85;17.33;;;;;;;-0.42;84.45;93240.00;4997401;28;20033;-78
2023/01/21 01:29:33;;;;;;;23.90;17.00;;;;;;;0.04;82.97;93259.13;4996771;28;20455;-79
2023/01/21 01:31:58;;;;;;;24.42;17.02;;;;;;;-0.01;82.59;93253.13;4994410;28;20069;-78
2023/01/21 01:34:24;;;;;;;27.23;18.35;;;;;;;0.05;82.55;93250.25;4995146;28;20133;-79
2023/01/21 01:36:50;;;;;;;26.75;16.33;;;;;;;0.23;81.76;93251.56;4997013;28;20045;-80
2023/01/21 01:39:15;;;;;;;23.30;16.23;;;;;;;0.27;81.40;93226.44;4997670;28;20045;-78
2023/01/21 01:41:41;;;;;;;24.23;15.52;;;;;;;0.82;80.28;93230.00;4995573;28;20502;-79
2023/01/21 01:44:44;;;;;;;24.40;16.55;;;;;;;0.86;78.96;93218.72;4997297;28;20053;-78
2023/01/21 01:47:10;;;;;;;26.95;17.52;;;;;;;0.23;80.44;93204.47;4973693;28;20268;-79
2023/01/21 01:49:36;;;;;;;22.65;15.77;;;;;;;0.92;79.87;93214.25;4996502;28;20920;-78
2023/01/21 01:52:05;;;;;;;22.83;15.30;;;;;;;0.71;78.40;93195.22;4979099;28;20076;-77
2023/01/21 01:54:35;;;;;;;24.05;15.52;;;;;;;0.72;79.01;93166.16;4996544;28;20265;-80
2023/01/21 01:57:04;;;;;;;23.70;17.02;;;;;;;1.05;77.99;93190.13;4997689;28;20044;-79
2023/01/21 01:59:31;;;;;;;24.15;16.33;;;;;;;0.47;79.55;93174.09;4993755;28;20129;-79
2023/01/21 02:02:03;;;;;;;25.58;18.90;;;;;;;0.44;80.07;93197.38;4995126;28;20046;-78
2023/01/21 02:04:32;;;;;;;24.58;17.13;;;;;;;0.42;80.22;93174.09;4996381;28;20045;-78
2023/01/21 02:06:58;;;;;;;26.00;17.13;;;;;;;0.03;82.01;93199.25;4977977;28;20592;-78
2023/01/21 02:09:28;;;;;;;27.05;18.20;;;;;;;-0.08;82.51;93199.25;4997214;28;20014;-78
2023/01/21 02:11:56;;;;;;;25.55;17.08;;;;;;;0.58;81.43;93196.56;4997074;28;20034;-79
2023/01/21 02:14:22;;;;;;;26.10;18.17;;;;;;;-0.27;83.07;93184.34;4996696;28;20510;-78
2023/01/21 02:17:24;;;;;;;24.48;17.42;;;;;;;0.44;81.93;93179.88;4996231;28;20061;-80
2023/01/21 02:20:03;;;;;;;26.42;17.95;;;;;;;0.12;82.67;93163.69;4995019;28;20034;-79
2023/01/21 02:22:41;;;;;;;23.25;16.80;;;;;;;1.01;80.05;93174.16;4996532;28;20038;-80
2023/01/21 02:25:15;;;;;;;26.10;18.13;;;;;;;0.55;79.65;93172.75;4997123;28;20036;-79
2023/01/21 02:27:47;;;;;;;25.15;17.55;;;;;;;0.04;81.74;93153.78;4970511;28;20104;-78
2023/01/21 02:30:21;;;;;;;23.10;15.45;;;;;;;0.74;80.21;93166.66;4995254;28;20434;-78
2023/01/21 02:33:28;;;;;;;23.50;15.25;;;;;;;0.86;79.01;93152.50;4995289;28;20038;-78
2023/01/21 02:36:01;;;;;;;23.67;16.27;;;;;;;-0.13;80.81;93112.22;4940164;28;20430;-78
2023/01/21 02:38:44;;;;;;;20.90;14.73;;;;;;;0.67;81.02;93140.00;4995138;28;20587;-79
2023/01/21 02:41:31;;;;;;;22.85;14.85;;;;;;;0.20;81.06;93132.56;4981224;28;20428;-78
2023/01/21 02:44:06;;;;;;;20.65;13.88;;;;;;;0.67;79.90;93149.69;4979599;28;20103;-79
2023/01/21 02:46:50;;;;;;;18.88;14.25;;;;;;;0.94;79.08;93147.47;4999223;28;20038;-78
2023/01/21 02:49:22;;;;;;;20.95;13.57;;;;;;;0.81;78.36;93155.91;4999663;28;20123;-81
2023/01/21 02:51:48;;;;;;;17.58;12.63;;;;;;;1.13;78.03;93151.03;4998189;28;20017;-79
2023/01/21 02:54:38;;;;;;;16.92;12.70;;;;;;;1.04;77.88;93157.13;5001677;28;20038;-78
2023/01/21 02:57:12;;;;;;;19.08;12.73;;;;;;;0.31;80.02;93143.78;4980712;28;20045;-78
2023/01/21 02:59:41;;;;;;;21.27;13.52;;;;;;;0.06;81.59;93128.91;4999024;28;20042;-78
2023/01/21 03:02:35;;;;;;;18.88;14.18;;;;;;;0.15;81.44;93123.97;4998162;28;20596;-78
2023/01/21 03:05:28;;;;;;;20.25;15.02;;;;;;;0.85;80.35;93141.25;4999688;28;20140;-79
2023/01/21 03:08:04;;;;;;;21.55;13.90;;;;;;;0.55;79.98;93117.81;4971658;28;20033;-79
2023/01/21 03:10:46;;;;;;;17.35;13.25;;;;;;;0.54;79.97;93121.50;5001483;28;20030;-78
2023/01/21 03:19:11;;;;;;;19.25;13.55;;;;;;;0.15;81.39;93101.22;4999598;28;20615;-77
2023/01/21 03:21:37;;;;;;;20.02;13.98;;;;;;;-0.22;82.40;93083.22;4999490;28;20053;-78
2023/01/21 03:24:05;;;;;;;19.70;13.27;;;;;;;0.02;81.15;93078.22;5001528;28;20573;-80
2023/01/21 03:26:37;;;;;;;19.95;13.00;;;;;;;0.33;80.69;93090.16;4998944;28;20057;-78
2023/01/21 03:29:13;;;;;;;19.40;12.20;;;;;;;0.75;79.11;93086.31;4999406;28;20037;-78
2023/01/21 03:31:42;;;;;;;15.75;11.23;;;;;;;1.18;77.15;93080.31;4995522;28;20176;-79
2023/01/21 03:34:12;;;;;;;15.82;11.88;;;;;;;1.62;75.45;93084.69;4999811;28;20064;-79
2023/01/21 03:36:51;;;;;;;15.43;11.75;;;;;;;1.66;73.86;93073.41;4998335;28;20773;-78
2023/01/21 03:39:42;;;;;;;13.75;10.38;;;;;;;2.14;72.64;93094.50;5001714;28;20044;-79
2023/01/21 03:42:08;;;;;;;13.85;10.32;;;;;;;2.32;71.61;93093.75;5000045;28;20422;-79
2023/01/21 03:44:34;;;;;;;12.70;10.95;;;;;;;2.08;70.83;93075.38;4974118;28;20125;-78
2023/01/21 03:47:34;;;;;;;13.23;9.93;;;;;;;1.63;71.67;93081.81;5000041;28;20393;-78
2023/01/21 03:50:16;;;;;;;14.60;10.57;;;;;;;1.96;72.13;93079.47;4998961;28;20034;-78
2023/01/21 03:52:43;;;;;;;13.20;9.27;;;;;;;1.97;71.05;93076.53;4998709;28;20382;-79
2023/01/21 03:55:11;;;;;;;16.38;9.40;;;;;;;1.83;71.96;93074.81;4998751;28;20655;-79
2023/01/21 03:57:37;;;;;;;12.88;9.43;;;;;;;1.85;72.26;93068.25;4999625;28;20811;-81
2023/01/21 04:00:04;;;;;;;11.27;8.52;;;;;;;1.96;71.99;93066.34;4999410;28;20072;-79
2023/01/21 04:02:30;;;;;;;14.07;9.93;;;;;;;1.94;71.40;93081.56;4997985;28;20038;-79
2023/01/21 04:04:55;;;;;;;11.48;8.75;;;;;;;2.39;70.27;93067.19;4997863;28;20359;-79
2023/01/21 04:07:20;;;;;;;12.35;9.02;;;;;;;2.62;69.39;93083.97;5000838;28;20278;-80
2023/01/21 04:09:48;;;;;;;11.68;9.13;;;;;;;2.73;67.74;93056.56;4998036;28;20124;-79
2023/01/21 04:12:14;;;;;;;9.73;8.35;;;;;;;2.84;68.14;93084.25;5000498;28;20502;-79
2023/01/21 04:14:39;;;;;;;10.13;7.85;;;;;;;2.87;68.24;93057.41;4997698;28;20125;-79
2023/01/21 04:17:05;;;;;;;11.20;8.85;;;;;;;2.86;67.21;93037.47;5000481;28;20046;-80
2023/01/21 04:19:30;;;;;;;11.88;10.20;;;;;;;2.97;67.49;93049.41;4998283;28;20038;-78
2023/01/21 04:21:56;;;;;;;10.73;8.13;;;;;;;2.86;67.30;93040.09;4999125;28;20028;-79
2023/01/21 04:24:21;;;;;;;11.52;8.77;;;;;;;2.71;67.86;93033.19;4998746;28;20133;-78
2023/01/21 04:26:46;;;;;;;10.38;8.30;;;;;;;3.09;66.40;93054.22;4997870;28;20536;-79
2023/01/21 04:29:12;;;;;;;11.93;9.57;;;;;;;3.05;66.16;93054.00;4980049;28;20855;-79
2023/01/21 04:31:37;;;;;;;10.55;8.70;;;;;;;2.60;66.71;93015.25;4996091;28;20568;-78
2023/01/21 04:34:03;;;;;;;13.10;10.52;;;;;;;2.06;69.47;93069.63;4998873;28;20026;-79
2023/01/21 04:36:28;;;;;;;11.57;9.40;;;;;;;2.17;70.13;93048.53;4997597;28;20436;-78
2023/01/21 04:38:54;;;;;;;13.05;9.10;;;;;;;2.74;68.73;93068.63;4999888;28;20048;-78
2023/01/21 04:41:19;;;;;;;12.82;10.13;;;;;;;2.70;67.61;93063.13;4998054;28;20137;-79
2023/01/21 04:43:44;;;;;;;12.60;9.30;;;;;;;2.78;66.93;93054.66;4999314;28;20037;-80
2023/01/21 04:46:10;;;;;;;14.32;9.07;;;;;;;2.91;67.04;93095.97;4998277;28;20401;-80
2023/01/21 04:48:35;;;;;;;12.80;10.50;;;;;;;3.04;66.10;93097.09;4998825;28;20030;-78
2023/01/21 04:51:01;;;;;;;12.63;9.57;;;;;;;2.97;66.33;93083.53;4981708;28;20040;-79
2023/01/21 04:53:26;;;;;;;11.05;8.40;;;;;;;3.13;65.69;93100.69;4997951;28;20541;-79
2023/01/21 04:55:52;;;;;;;12.40;9.32;;;;;;;3.14;65.51;93109.31;4969881;28;20569;-78
2023/01/21 04:58:18;;;;;;;12.15;9.52;;;;;;;2.63;67.23;93070.59;4996911;28;20041;-79
2023/01/21 05:00:44;;;;;;;12.40;9.73;;;;;;;2.62;68.13;93076.91;4997043;28;20050;-78
2023/01/21 05:03:09;;;;;;;14.02;9.65;;;;;;;2.94;67.38;93113.78;4997327;28;20413;-79
2023/01/21 05:05:34;;;;;;;13.93;10.48;;;;;;;2.92;67.07;93094.13;4998163;28;20071;-79
2023/01/21 05:08:00;;;;;;;15.50;11.52;;;;;;;2.93;67.13;93093.06;4996947;28;20042;-78
2023/01/21 05:10:25;;;;;;;14.68;11.60;;;;;;;2.85;67.83;93118.09;4982559;28;20037;-79
2023/01/21 05:12:50;;;;;;;17.98;12.75;;;;;;;2.79;68.12;93134.22;4997530;28;20065;-79
2023/01/21 05:15:16;;;;;;;17.85;13.27;;;;;;;2.77;67.89;93108.22;4999365;28;20052;-79
2023/01/21 05:17:41;;;;;;;18.33;13.02;;;;;;;2.88;66.95;93127.25;4998503;28;20022;-78
2023/01/21 05:20:07;;;;;;;20.15;14.02;;;;;;;2.80;67.34;93112.13;4997716;28;20073;-78
2023/01/21 05:22:33;;;;;;;17.98;13.95;;;;;;;2.96;66.82;93118.75;4998031;28;20034;-79
2023/01/21 05:24:59;;;;;;;20.35;14.73;;;;;;;2.90;67.00;93099.66;4998648;28;20028;-78
2023/01/21 05:27:25;;;;;;;18.42;13.75;;;;;;;2.84;66.71;93089.50;4998272;28;20422;-79
2023/01/21 05:29:51;;;;;;;20.40;14.50;;;;;;;3.21;65.78;93133.41;4997451;28;20580;-79
2023/01/21 05:32:17;;;;;;;16.63;13.73;;;;;;;3.28;65.38;93147.75;4997016;28;20575;-79
2023/01/21 05:34:43;;;;;;;25.20;15.35;;;;;;;3.33;64.70;93139.78;4998169;28;20533;-80
2023/01/21 05:37:09;;;;;;;25.95;21.40;;;;;;;3.08;65.61;93129.63;4997321;28;20088;-78
2023/01/21 05:39:34;;;;;;;30.05;25.70;;;;;;;3.16;65.47;93144.75;4997228;28;20108;-79
2023/01/21 05:41:59;;;;;;;26.85;19.60;;;;;;;3.21;65.30;93147.31;4996508;28;20095;-79
2023/01/21 05:44:25;;;;;;;21.45;15.32;;;;;;;3.43;64.48;93153.88;4978654;28;20029;-81
2023/01/21 05:46:50;;;;;;;21.05;14.82;;;;;;;3.19;64.75;93130.25;4998058;28;20124;-79
2023/01/21 05:49:16;;;;;;;18.90;15.05;;;;;;;3.41;64.08;93167.31;4997370;28;20525;-81
2023/01/21 05:51:41;;;;;;;22.92;15.30;;;;;;;3.17;64.73;93162.09;4997307;28;20068;-79
2023/01/21 05:54:06;;;;;;;25.85;16.55;;;;;;;3.10;65.32;93156.41;4998030;28;20057;-79
2023/01/21 05:56:32;;;;;;;24.73;15.77;;;;;;;3.07;65.42;93156.19;4996288;28;20605;-79
2023/01/21 05:58:57;;;;;;;22.13;15.80;;;;;;;3.08;65.48;93160.38;4997932;28;20110;-79
2023/01/21 06:01:23;;;;;;;22.40;17.33;;;;;;;2.93;66.09;93146.38;4995774;28;20294;-79
2023/01/21 06:03:48;;;;;;;23.38;16.70;;;;;;;3.09;65.42;93146.16;4996963;28;20022;-78
2023/01/21 06:06:13;;;;;;;23.20;16.85;;;;;;;2.91;64.71;93100.44;4998445;28;20099;-79
2023/01/21 06:08:39;;;;;;;29.20;18.85;;;;;;;2.95;64.93;93125.06;4998923;28;20387;-80
2023/01/21 06:11:04;;;;;;;28.40;19.63;;;;;;;2.89;66.03;93134.09;4999031;28;20446;-78
2023/01/21 06:13:30;;;;;;;28.15;18.95;;;;;;;2.86;65.44;93127.53;5000809;28;20424;-80
2023/01/21 06:15:56;;;;;;;30.30;19.63;;;;;;;2.29;67.27;93131.06;5001066;28;20888;-79
2023/01/21 06:18:22;;;;;;;26.58;19.45;;;;;;;2.31;67.78;93122.91;5002517;28;20140;-80
2023/01/21 06:20:48;;;;;;;27.98;18.92;;;;;;;2.50;66.44;93121.13;4997881;28;20033;-79
2023/01/21 06:23:13;;;;;;;25.73;18.45;;;;;;;1.92;68.39;93139.53;5001449;28;20826;-79
2023/01/21 06:25:39;;;;;;;26.88;18.20;;;;;;;2.07;68.79;93131.53;5000707;28;20034;-79
2023/01/21 06:28:05;;;;;;;27.45;18.08;;;;;;;2.57;66.73;93160.16;4995279;28;20116;-79
2023/01/21 06:30:31;;;;;;;28.92;18.38;;;;;;;2.70;65.32;93151.63;5000274;28;20130;-78
2023/01/21 06:32:56;;;;;;;25.83;18.70;;;;;;;2.82;64.39;93149.38;4983298;28;20485;-79
2023/01/21 06:35:22;;;;;;;31.48;20.17;;;;;;;2.81;64.63;93153.06;4998182;28;20041;-78
2023/01/21 06:37:48;;;;;;;31.35;20.95;;;;;;;2.97;64.55;93172.84;4998908;28;20387;-80
2023/01/21 06:40:14;;;;;;;28.92;20.05;;;;;;;2.94;64.86;93183.91;5000962;28;20463;-81
2023/01/21 06:42:39;;;;;;;30.25;20.88;;;;;;;2.96;65.23;93172.06;4982681;28;20570;-79
2023/01/21 06:45:05;;;;;;;29.55;20.98;;;;;;;2.95;65.17;93153.94;4979556;28;20061;-78
2023/01/21 06:47:30;;;;;;;28.88;19.17;;;;;;;3.05;65.71;93174.84;4994244;28;20037;-80
2023/01/21 06:49:56;;;;;;;29.48;18.00;;;;;;;3.02;66.10;93180.69;4997961;28;20029;-80
2023/01/21 06:52:22;;;;;;;27.05;17.83;;;;;;;2.71;67.89;93150.56;4978056;28;20057;-79
2023/01/21 06:54:47;;;;;;;20.23;14.35;;;;;;;2.45;69.32;93163.94;4996253;28;20042;-78
2023/01/21 06:57:13;;;;;;;19.70;14.38;;;;;;;2.67;70.03;93199.44;5000299;28;20421;-78
2023/01/21 06:59:39;;;;;;;23.45;16.35;;;;;;;2.87;69.06;93200.03;4989315;28;20073;-79
2023/01/21 07:02:04;;;;;;;25.42;16.90;;;;;;;3.04;68.38;93207.44;4994426;28;20548;-79
2023/01/21 07:04:30;;;;;;;28.33;19.48;;;;;;;3.05;67.78;93195.06;4994364;28;20046;-78
2023/01/21 07:06:55;;;;;;;26.73;18.77;;;;;;;2.75;68.72;93173.34;4994062;28;20197;-79
2023/01/21 07:09:21;;;;;;;21.35;16.17;;;;;;;2.80;69.32;93193.53;4991599;28;20111;-78
2023/01/21 07:11:46;;;;;;;22.85;16.25;;;;;;;2.75;68.33;93175.19;4994212;28;20065;-78
2023/01/21 07:14:11;;;;;;;26.63;17.83;;;;;;;2.41;70.16;93159.53;4995443;28;20029;-79
2023/01/21 07:16:37;;;;;;;23.17;16.85;;;;;;;2.66;69.49;93171.63;4993522;28;20042;-80
2023/01/21 07:19:02;;;;;;;25.80;18.45;;;;;;;2.44;70.61;93180.78;4991430;28;20029;-80
2023/01/21 07:21:28;;;;;;;28.65;19.48;;;;;;;2.35;71.46;93195.53;4992433;28;20367;-78
2023/01/21 07:23:54;;;;;;;25.67;17.23;;;;;;;2.61;70.75;93190.84;4972217;28;20061;-81
2023/01/21 07:26:20;;;;;;;26.38;17.50;;;;;;;2.49;70.39;93188.59;4993736;28;20556;-80
2023/01/21 07:28:46;;;;;;;22.55;16.42;;;;;;;2.67;70.12;93189.72;4995228;28;20042;-80
2023/01/21 07:31:12;;;;;;;26.95;18.13;;;;;;;2.40;70.73;93199.97;4988464;28;20076;-79
2023/01/21 07:33:38;;;;;;;26.25;17.17;;;;;;;1.98;72.48;93161.25;4994463;28;20034;-79
2023/01/21 07:36:04;;;;;;;28.40;20.02;;;;;;;1.55;74.88;93181.19;4997414;28;20072;-79
2023/01/21 07:38:29;;;;;;;30.25;21.30;;;;;;;1.75;74.65;93172.41;4999335;28;20045;-80
2023/01/21 07:40:54;;;;;;;26.50;18.60;;;;;;;2.05;73.30;93173.00;4999095;28;20057;-78
2023/01/21 07:43:20;;;;;;;24.73;17.45;;;;;;;1.75;73.70;93161.94;4966662;28;20038;-80
2023/01/21 07:45:45;;;;;;;25.85;18.88;;;;;;;1.70;73.86;93143.63;4993410;28;20022;-78
2023/01/21 07:48:11;;;;;;;23.33;16.50;;;;;;;2.63;71.56;93170.34;4996054;28;20033;-79
2023/01/21 07:50:36;;;;;;;26.45;17.25;;;;;;;2.80;69.20;93167.25;4970766;28;20603;-79
2023/01/21 07:53:03;;;;;;;24.60;17.50;;;;;;;3.06;68.92;93191.41;4996049;28;20524;-79
2023/01/21 07:55:29;;;;;;;24.88;16.90;;;;;;;3.20;68.40;93173.88;4979284;28;20435;-79
2023/01/21 07:57:56;;;;;;;25.40;18.00;;;;;;;3.15;67.63;93147.66;4998090;28;20419;-78
2023/01/21 08:00:22;;;;;;;32.22;19.13;;;;;;;3.19;68.88;93154.69;4998026;28;20428;-78
2023/01/21 08:02:55;;;;;;;25.10;17.60;;;;;;;3.63;67.66;93175.38;4995879;28;20038;-79
2023/01/21 08:05:22;;;;;;;23.50;16.00;;;;;;;3.86;66.83;93170.34;4992627;28;20176;-79
2023/01/21 08:07:47;;;;;;;25.17;15.85;;;;;;;3.87;66.19;93154.25;4992199;28;20037;-78
2023/01/21 08:10:14;;;;;;;23.35;15.23;;;;;;;3.89;66.19;93156.59;4994789;28;20714;-78
2023/01/21 08:12:40;;;;;;;19.40;14.02;;;;;;;4.10;65.42;93190.22;4995553;28;20025;-80
2023/01/21 08:15:07;;;;;;;17.98;13.45;;;;;;;3.91;66.04;93162.38;4995270;28;20088;-78
2023/01/21 08:17:33;;;;;;;18.45;12.88;;;;;;;4.25;64.59;93179.44;4994986;28;20065;-79
2023/01/21 08:19:58;;;;;;;19.02;12.70;;;;;;;3.52;67.49;93188.97;4994526;28;20125;-77
2023/01/21 08:22:24;;;;;;;16.75;11.18;;;;;;;3.57;67.63;93181.03;4994247;28;20445;-78
2023/01/21 08:24:50;;;;;;;15.75;12.10;;;;;;;3.38;68.59;93178.38;4975195;28;20100;-78
2023/01/21 08:27:15;;;;;;;19.60;13.55;;;;;;;3.00;70.34;93167.03;4996441;28;20688;-80
2023/01/21 08:29:41;;;;;;;13.70;9.05;;;;;;;3.03;70.70;93191.97;4994498;28;20520;-78
2023/01/21 08:32:06;;;;;;;9.68;6.15;;;;;;;3.12;69.36;93188.44;4996204;28;20242;-78
2023/01/21 08:34:32;;;;;;;5.70;4.25;;;;;;;2.76;68.32;93171.50;4995306;28;20045;-79
2023/01/21 08:36:58;;;;;;;8.20;5.25;;;;;;;2.81;69.56;93174.88;4998318;28;20490;-78
2023/01/21 08:39:23;;;;;;;6.15;5.55;;;;;;;3.24;69.41;93186.16;4973856;28;20052;-78
2023/01/21 08:41:48;;;;;;;9.85;6.85;;;;;;;3.16;70.13;93201.78;4996193;28;20453;-78
2023/01/21 08:44:14;;;;;;;8.90;6.82;;;;;;;3.47;69.28;93199.56;4979080;28;20022;-80
2023/01/21 08:46:39;;;;;;;6.15;4.43;;;;;;;3.58;67.60;93204.38;4996612;28;20622;-81
2023/01/21 08:49:05;;;;;;;6.90;4.75;;;;;;;3.34;67.61;93188.66;4988914;28;20057;-78
2023/01/21 08:51:31;;;;;;;6.57;4.55;;;;;;;3.49;67.05;93190.31;4973407;28;20029;-78
2023/01/21 08:53:56;;;;;;;5.65;4.28;;;;;;;3.97;67.42;93206.72;4995982;28;20244;-78
2023/01/21 08:56:21;;;;;;;7.05;3.72;;;;;;;3.54;65.31;93197.34;4967030;28;20171;-78
2023/01/21 08:58:47;;;;;;;4.07;3.50;;;;;;;3.86;66.29;93199.28;4984406;28;20052;-78
2023/01/21 09:01:16;;;;;;;8.38;4.22;;;;;;;4.51;65.20;93226.41;4969470;28;20527;-79
2023/01/21 09:03:42;;;;;;;11.48;8.43;;;;;;;4.81;64.45;93211.94;4972211;28;20022;-78
2023/01/21 09:06:09;;;;;;;18.35;12.77;;;;;;;4.75;63.67;93215.75;4971456;28;20435;-80
2023/01/21 09:08:35;;;;;;;4.95;3.92;;;;;;;4.27;64.33;93200.97;4969463;28;20389;-80
2023/01/21 09:11:02;;;;;;;4.93;3.10;;;;;;;3.93;64.83;93205.72;4979342;28;20132;-79
2023/01/21 09:13:33;;;;;;;5.75;3.50;;;;;;;4.27;65.58;93194.94;4977241;28;20045;-78
2023/01/21 09:15:59;;;;;;;4.68;3.53;;;;;;;3.96;65.99;93204.41;4975224;28;20165;-79
2023/01/21 09:18:25;;;;;;;5.55;3.80;;;;;;;3.38;67.48;93189.66;4977731;28;20042;-79
2023/01/21 09:20:51;;;;;;;6.38;4.65;;;;;;;3.06;69.59;93179.03;4977595;28;20165;-80
2023/01/21 09:23:26;;;;;;;6.05;4.07;;;;;;;3.33;69.27;93176.59;4977015;28;20068;-79
2023/01/21 09:25:59;;;;;;;6.53;4.00;;;;;;;3.53;69.44;93195.78;4975992;28;20045;-80
2023/01/21 09:28:25;;;;;;;5.75;3.80;;;;;;;3.32;69.96;93190.81;4971369;28;20061;-80
2023/01/21 09:30:58;;;;;;;5.15;3.72;;;;;;;3.06;70.78;93171.16;4973948;28;20481;-79
2023/01/21 09:33:24;;;;;;;5.53;4.10;;;;;;;3.07;71.42;93178.00;4976027;28;20605;-79
2023/01/21 09:35:55;;;;;;;8.10;3.85;;;;;;;3.27;71.84;93171.69;4978997;28;20073;-80
2023/01/21 09:38:21;;;;;;;6.57;4.55;;;;;;;3.45;71.68;93157.00;4976378;28;20512;-79
2023/01/21 09:40:47;;;;;;;5.72;4.47;;;;;;;3.39;70.97;93149.19;4976825;28;20147;-80
2023/01/21 09:43:21;;;;;;;5.97;3.67;;;;;;;3.14;70.64;93148.72;4977560;28;20078;-79
2023/01/21 09:45:49;;;;;;;5.05;3.72;;;;;;;3.31;70.44;93162.19;4976620;28;20077;-80
2023/01/21 09:48:27;;;;;;;4.22;3.83;;;;;;;3.17;70.06;93129.78;4976901;28;20045;-79
2023/01/21 09:50:55;;;;;;;4.15;3.60;;;;;;;3.11;71.31;93147.47;4974920;28;20042;-80
2023/01/21 09:53:34;;;;;;;5.85;4.05;;;;;;;3.39;70.21;93154.44;4978448;28;20081;-81
2023/01/21 09:56:02;;;;;;;4.53;3.83;;;;;;;3.47;68.57;93145.16;4966615;28;20499;-79
2023/01/21 09:58:30;;;;;;;5.68;4.40;;;;;;;3.51;68.15;93154.03;4975321;28;20035;-81
2023/01/21 10:01:33;;;;;;;4.85;3.53;;;;;;;3.69;68.61;93141.91;4981773;28;20097;-78
2023/01/21 10:04:24;;;;;;;5.97;4.13;;;;;;;3.68;68.28;93146.38;4916305;28;20612;-80
2023/01/21 10:07:04;;;;;;;6.70;3.85;;;;;;;3.54;67.46;93119.25;4973333;28;20144;-79
2023/01/21 10:09:30;;;;;;;4.38;3.92;;;;;;;3.78;68.22;93143.59;4973537;28;20018;-78
2023/01/21 10:12:10;;;;;;;6.82;4.60;;;;;;;4.04;66.85;93137.94;4992839;28;20041;-81
2023/01/21 10:14:44;;;;;;;6.57;5.05;;;;;;;3.86;67.89;93121.16;4991514;28;20136;-79
2023/01/21 10:17:31;;;;;;;4.10;3.63;;;;;;;4.23;66.68;93130.78;4993093;28;20676;-79
2023/01/21 10:20:09;;;;;;;4.50;3.90;;;;;;;4.02;65.72;93140.84;4994667;28;20041;-79
2023/01/21 10:22:35;;;;;;;3.92;3.50;;;;;;;3.82;66.25;93125.41;4996339;28;20042;-79
2023/01/21 10:25:25;;;;;;;6.50;4.22;;;;;;;4.20;65.50;93142.69;4995895;28;20104;-79
2023/01/21 10:27:53;;;;;;;8.35;5.55;;;;;;;4.09;65.92;93136.03;4997231;28;20025;-78
2023/01/21 10:30:30;;;;;;;3.65;3.35;;;;;;;4.09;66.57;93143.13;4992707;28;21171;-79
2023/01/21 10:32:55;;;;;;;6.15;3.97;;;;;;;4.07;65.81;93122.34;4975117;28;20034;-80
2023/01/21 10:35:47;;;;;;;7.38;5.85;;;;;;;4.22;65.40;93087.09;4995408;28;20069;-80
2023/01/21 10:38:24;;;;;;;4.40;3.60;;;;;;;4.33;65.64;93128.00;4986722;28;20045;-80
2023/01/21 10:41:23;;;;;;;4.85;3.75;;;;;;;4.38;65.22;93125.28;4966088;28;20044;-80
2023/01/21 10:43:59;;;;;;;4.88;4.00;;;;;;;4.78;63.74;93115.06;4971688;28;20488;-80
2023/01/21 10:46:36;;;;;;;8.50;6.13;;;;;;;4.99;63.35;93110.97;4975036;28;20637;-81
2023/01/21 10:49:05;;;;;;;5.93;4.00;;;;;;;5.25;63.13;93111.19;4991710;28;20060;-80
2023/01/21 10:51:45;;;;;;;6.90;3.72;;;;;;;5.33;62.52;93084.16;4992007;28;20052;-79
2023/01/21 10:54:24;;;;;;;6.05;3.75;;;;;;;5.17;62.15;93088.97;4978072;28;20041;-79
2023/01/21 10:57:00;;;;;;;5.75;3.60;;;;;;;4.73;62.30;93058.00;4978923;28;20502;-81
2023/01/21 10:59:31;;;;;;;6.93;3.92;;;;;;;5.50;62.67;93094.81;5000810;28;20073;-81
2023/01/21 11:02:26;;;;;;;4.75;3.75;;;;;;;5.97;60.01;93096.88;5000844;28;20104;-79
2023/01/21 11:04:53;;;;;;;;;;;;;;;6.40;58.86;93088.44;4996838;28;20041;-81
2023/01/21 11:07:20;;;;;;;6.63;3.65;;;;;;;6.02;58.42;93068.81;4999927;28;19979;-80
2023/01/21 11:09:47;;;;;;;4.35;2.95;;;;;;;5.78;58.82;93085.72;4969105;28;20025;-80
2023/01/21 11:12:16;;;;;;;6.28;3.13;;;;;;;5.34;59.92;93088.31;4996942;28;20134;-79
2023/01/21 11:14:46;;;;;;;9.60;3.72;;;;;;;5.46;60.12;93067.50;4999206;28;20406;-80
2023/01/21 11:17:12;;;;;;;2.85;2.00;;;;;;;5.18;60.24;93077.34;4996818;28;20137;-79
2023/01/21 11:19:37;;;;;;;3.05;2.53;;;;;;;5.57;59.93;93103.13;4997221;28;20042;-79
2023/01/21 11:22:14;;;;;;;3.10;2.42;;;;;;;5.46;60.64;93113.09;4997957;28;20076;-79
2023/01/21 11:24:43;;;;;;;3.55;2.75;;;;;;;5.65;60.27;93101.59;4995453;28;20033;-80
2023/01/21 11:27:37;;;;;;;2.97;2.13;;;;;;;5.31;59.68;93091.56;4997013;28;20078;-79
2023/01/21 11:30:05;;;;;;;2.88;2.40;;;;;;;5.22;60.14;93103.88;4995334;28;20050;-79
2023/01/21 11:32:31;;;;;;;4.75;2.70;;;;;;;5.14;61.07;93108.78;4993302;28;20121;-79
2023/01/21 11:34:59;;;;;;;4.50;2.90;;;;;;;4.98;61.61;93110.19;4971292;28;20136;-79
2023/01/21 11:37:27;;;;;;;3.53;2.30;;;;;;;5.03;61.33;93102.16;4993262;28;20053;-81
2023/01/21 11:39:56;;;;;;;2.90;2.58;;;;;;;4.70;61.44;93056.72;4991542;28;20245;-79
2023/01/21 11:42:22;;;;;;;3.92;2.30;;;;;;;4.92;61.56;93074.47;4970882;28;20405;-79
2023/01/21 11:45:00;;;;;;;3.90;2.10;;;;;;;5.17;60.65;93102.13;4974442;28;20033;-78